Time;durP1;ratioP1;P1;durP2;ratioP2;P2;SDS_P1;SDS_P2;PMS_P1;PMS_P2;Temp;Humidity;BMP_temperature;BMP_pressure;BME280_temperature;BME280_humidity;BME280_pressure;Samples;Min_cycle;Max_cycle;Signal;HPM_P1;HPM_P2
2023/01/31 00:01:09;;;;;;;7.57;2.83;;;5.90;99.90;;;;;;7391493;19;20218;-75
2023/01/31 00:03:35;;;;;;;5.90;2.37;;;5.90;99.90;;;;;;7387764;19;20146;-74
2023/01/31 00:06:18;;;;;;;6.77;2.70;;;6.10;99.90;;;;;;7391016;19;20145;-74
2023/01/31 00:08:44;;;;;;;6.83;2.90;;;6.30;99.90;;;;;;7392786;19;20134;-75
2023/01/31 00:11:10;;;;;;;5.83;2.53;;;6.20;99.90;;;;;;7391941;19;20479;-74
2023/01/31 00:13:37;;;;;;;6.00;3.00;;;6.10;99.90;;;;;;7390048;19;20141;-74
2023/01/31 00:16:03;;;;;;;4.13;2.73;;;6.00;99.90;;;;;;7394479;19;20223;-76
2023/01/31 00:18:29;;;;;;;5.57;2.57;;;6.00;99.90;;;;;;7391515;19;20176;-74
2023/01/31 00:20:55;;;;;;;6.70;2.80;;;6.00;99.90;;;;;;7397410;19;20174;-75
2023/01/31 00:23:22;;;;;;;4.73;2.53;;;6.00;99.90;;;;;;7397164;19;20122;-74
2023/01/31 00:25:48;;;;;;;7.60;2.73;;;6.00;99.90;;;;;;7398598;19;20137;-74
2023/01/31 00:28:14;;;;;;;3.97;2.13;;;5.90;99.90;;;;;;7398129;19;20218;-74
2023/01/31 00:30:39;;;;;;;5.70;2.77;;;6.00;99.90;;;;;;7400408;19;20159;-74
2023/01/31 00:33:05;;;;;;;2.97;2.30;;;5.90;99.90;;;;;;7398124;19;20149;-74
2023/01/31 00:35:31;;;;;;;5.37;2.40;;;6.00;99.90;;;;;;7397351;19;20504;-75
2023/01/31 00:37:57;;;;;;;4.53;2.43;;;5.90;99.90;;;;;;7398632;19;20130;-75
2023/01/31 00:40:22;;;;;;;7.30;2.87;;;5.80;99.90;;;;;;7398356;19;20520;-73
2023/01/31 00:42:48;;;;;;;6.77;2.70;;;6.00;99.90;;;;;;7396085;19;20591;-74
2023/01/31 00:45:15;;;;;;;5.60;2.30;;;5.90;99.90;;;;;;7395851;19;20153;-75
2023/01/31 00:47:40;;;;;;;6.43;2.60;;;5.80;99.90;;;;;;7397871;19;20150;-74
2023/01/31 00:50:06;;;;;;;4.03;2.27;;;5.70;99.90;;;;;;7399425;19;20572;-74
2023/01/31 00:52:32;;;;;;;3.27;2.17;;;5.80;99.90;;;;;;7399883;19;20154;-75
2023/01/31 00:54:58;;;;;;;4.17;2.17;;;5.70;99.90;;;;;;7396466;19;20146;-74
2023/01/31 00:57:23;;;;;;;3.47;2.50;;;5.90;99.90;;;;;;7398055;19;20126;-74
2023/01/31 00:59:49;;;;;;;5.53;2.83;;;5.70;99.90;;;;;;7395881;19;20584;-74
2023/01/31 01:02:15;;;;;;;6.33;2.13;;;5.80;99.90;;;;;;7398643;19;20144;-74
2023/01/31 01:04:41;;;;;;;3.57;2.07;;;5.70;99.90;;;;;;7398284;19;20153;-73
2023/01/31 01:07:06;;;;;;;6.00;2.53;;;5.60;99.90;;;;;;7395764;19;20131;-75
2023/01/31 01:09:32;;;;;;;7.00;3.00;;;5.80;99.90;;;;;;7395974;19;20230;-75
2023/01/31 01:11:58;;;;;;;5.27;2.23;;;5.70;99.90;;;;;;7397369;19;20149;-74
2023/01/31 01:14:24;;;;;;;4.73;2.23;;;5.80;99.90;;;;;;7397334;19;20134;-75
2023/01/31 01:16:49;;;;;;;4.77;2.57;;;5.80;99.90;;;;;;7394735;19;20134;-75
2023/01/31 01:19:18;;;;;;;5.13;2.27;;;5.80;99.90;;;;;;7396621;19;20131;-75
2023/01/31 01:21:44;;;;;;;6.23;2.17;;;5.70;99.90;;;;;;7394932;19;20165;-73
2023/01/31 01:24:18;;;;;;;7.20;2.07;;;5.60;99.90;;;;;;7395225;19;20150;-74
2023/01/31 01:26:44;;;;;;;7.47;2.13;;;5.60;99.90;;;;;;7397429;19;20127;-73
2023/01/31 01:29:11;;;;;;;5.63;2.40;;;5.60;99.90;;;;;;7396278;19;20170;-74
2023/01/31 01:31:38;;;;;;;6.70;2.03;;;5.60;99.90;;;;;;7396714;19;20138;-74
2023/01/31 01:34:11;;;;;;;7.33;2.33;;;5.70;99.90;;;;;;7397809;19;20179;-74
2023/01/31 01:36:37;;;;;;;4.17;2.13;;;5.90;99.90;;;;;;7391535;19;20157;-74
2023/01/31 01:39:05;;;;;;;6.47;2.33;;;5.90;99.90;;;;;;7398522;19;20138;-74
2023/01/31 01:41:34;;;;;;;2.77;1.97;;;5.70;99.90;;;;;;7394284;19;20142;-73
2023/01/31 01:44:03;;;;;;;6.53;2.20;;;5.60;99.90;;;;;;7395308;19;20539;-75
2023/01/31 01:46:32;;;;;;;7.40;2.47;;;5.80;99.90;;;;;;7394332;19;20130;-74
2023/01/31 01:49:22;;;;;;;6.93;2.27;;;5.90;99.90;;;;;;7396758;19;20123;-75
2023/01/31 01:51:52;;;;;;;7.20;2.60;;;6.10;99.90;;;;;;7395865;19;20150;-74
2023/01/31 01:54:33;;;;;;;3.27;2.30;;;5.90;99.90;;;;;;7396229;19;20194;-74
2023/01/31 01:57:02;;;;;;;4.03;2.03;;;5.90;99.90;;;;;;7397718;19;20489;-74
2023/01/31 01:59:37;;;;;;;6.83;2.40;;;5.70;99.90;;;;;;7395515;19;20658;-74
2023/01/31 02:02:03;;;;;;;6.23;2.37;;;5.90;99.90;;;;;;7395423;19;20162;-75
2023/01/31 02:04:34;;;;;;;4.47;2.10;;;6.00;99.90;;;;;;7390536;19;20250;-74
2023/01/31 02:07:01;;;;;;;7.20;2.70;;;6.00;99.90;;;;;;7395936;19;20215;-74
2023/01/31 02:09:53;;;;;;;7.13;2.33;;;5.90;99.90;;;;;;7394727;19;20150;-74
2023/01/31 02:12:19;;;;;;;4.40;2.27;;;5.90;99.90;;;;;;7395233;19;20203;-74
2023/01/31 02:14:46;;;;;;;6.50;2.47;;;6.00;99.90;;;;;;7393835;19;20182;-73
2023/01/31 02:17:14;;;;;;;8.83;2.20;;;6.10;99.90;;;;;;7393978;19;20208;-75
2023/01/31 02:19:53;;;;;;;5.63;2.30;;;5.90;99.90;;;;;;7395299;19;20141;-74
2023/01/31 02:22:38;;;;;;;6.00;2.30;;;5.80;99.90;;;;;;7393628;19;20138;-74
2023/01/31 02:25:41;;;;;;;4.37;2.30;;;5.80;99.90;;;;;;7392260;19;20151;-74
2023/01/31 02:28:45;;;;;;;6.90;2.40;;;5.80;99.90;;;;;;7395569;19;20218;-75
2023/01/31 02:31:47;;;;;;;5.97;2.20;;;5.80;99.90;;;;;;7393209;19;21537;-75
2023/01/31 02:34:44;;;;;;;4.57;2.60;;;5.90;99.90;;;;;;7394948;19;20138;-74
2023/01/31 02:37:19;;;;;;;4.83;2.00;;;6.00;99.90;;;;;;7392410;19;20162;-74
2023/01/31 02:39:54;;;;;;;3.97;2.30;;;6.00;99.90;;;;;;7396002;19;20205;-74
2023/01/31 02:42:35;;;;;;;6.97;2.53;;;6.00;99.90;;;;;;7392983;19;20491;-74
2023/01/31 02:45:26;;;;;;;5.40;2.20;;;6.00;99.90;;;;;;7397107;19;20616;-74
2023/01/31 02:48:18;;;;;;;3.60;2.17;;;6.00;99.90;;;;;;7393065;19;20154;-74
2023/01/31 02:50:55;;;;;;;8.10;2.93;;;6.00;99.90;;;;;;7392695;19;20246;-74
2023/01/31 02:53:36;;;;;;;4.87;2.10;;;6.00;99.90;;;;;;7395114;19;20138;-74
2023/01/31 02:56:28;;;;;;;6.50;2.53;;;5.90;99.90;;;;;;7395090;19;20134;-73
2023/01/31 02:59:03;;;;;;;5.50;2.87;;;6.10;99.90;;;;;;7392204;19;20153;-74
2023/01/31 03:01:35;;;;;;;6.47;2.63;;;6.10;99.90;;;;;;7391517;19;20699;-75
2023/01/31 03:04:04;;;;;;;7.57;2.67;;;6.10;99.90;;;;;;7391721;19;20151;-74
2023/01/31 03:06:32;;;;;;;5.83;1.90;;;6.10;99.90;;;;;;7391835;19;20157;-73
2023/01/31 03:09:23;;;;;;;6.07;2.60;;;6.10;99.90;;;;;;7391079;19;20178;-74
2023/01/31 03:12:09;;;;;;;2.70;1.90;;;6.00;99.90;;;;;;7392295;19;20280;-74
2023/01/31 03:14:47;;;;;;;9.67;2.93;;;6.00;99.90;;;;;;7390418;19;20194;-73
2023/01/31 03:17:33;;;;;;;6.47;2.50;;;6.00;99.90;;;;;;7392902;19;20607;-74
2023/01/31 03:20:16;;;;;;;7.70;2.57;;;6.00;99.90;;;;;;7393602;19;20142;-74
2023/01/31 03:22:49;;;;;;;4.37;2.10;;;5.90;99.90;;;;;;7393268;19;20142;-74
2023/01/31 03:25:18;;;;;;;8.30;2.30;;;5.60;99.90;;;;;;7390167;19;20221;-74
2023/01/31 03:27:51;;;;;;;4.53;2.23;;;5.70;99.90;;;;;;7391475;19;20218;-74
2023/01/31 03:30:21;;;;;;;7.50;3.20;;;5.80;99.90;;;;;;7390978;19;20139;-73
2023/01/31 03:33:06;;;;;;;5.67;2.10;;;5.90;99.90;;;;;;7392823;19;20141;-74
2023/01/31 03:35:34;;;;;;;6.00;2.57;;;5.80;99.90;;;;;;7390703;19;20146;-74
2023/01/31 03:38:00;;;;;;;7.43;2.57;;;5.80;99.90;;;;;;7391750;19;20179;-73
2023/01/31 03:40:30;;;;;;;3.97;2.50;;;5.70;99.90;;;;;;7391286;19;20142;-74
2023/01/31 03:43:05;;;;;;;7.30;2.47;;;5.80;99.90;;;;;;7390672;19;20146;-73
2023/01/31 03:45:45;;;;;;;6.40;2.47;;;5.90;99.90;;;;;;7392673;19;20134;-75
2023/01/31 03:48:16;;;;;;;6.17;2.13;;;5.90;99.90;;;;;;7393111;19;20238;-74
2023/01/31 03:50:57;;;;;;;6.37;2.40;;;5.70;99.90;;;;;;7391141;19;20163;-73
2023/01/31 03:53:39;;;;;;;8.40;2.67;;;5.60;99.90;;;;;;7390410;19;20126;-74
2023/01/31 03:56:26;;;;;;;4.17;2.37;;;5.50;99.90;;;;;;7391644;19;20209;-74
2023/01/31 03:59:01;;;;;;;5.27;2.20;;;5.40;99.90;;;;;;7394674;19;20157;-74
2023/01/31 04:01:30;;;;;;;8.27;2.50;;;5.40;99.90;;;;;;7389534;19;20691;-75
2023/01/31 04:04:00;;;;;;;7.00;2.37;;;5.70;99.90;;;;;;7390156;19;20135;-74
2023/01/31 04:06:26;;;;;;;4.73;2.40;;;5.90;99.90;;;;;;7391483;19;20149;-74
2023/01/31 04:08:52;;;;;;;6.10;2.20;;;5.90;99.90;;;;;;7390938;19;20141;-75
2023/01/31 04:11:20;;;;;;;6.67;2.10;;;5.70;99.90;;;;;;7391005;19;20135;-74
2023/01/31 04:13:46;;;;;;;5.10;2.50;;;5.80;99.90;;;;;;7390462;19;20158;-74
2023/01/31 04:16:13;;;;;;;8.43;2.60;;;5.70;99.90;;;;;;7389974;19;20134;-74
2023/01/31 04:18:38;;;;;;;7.23;2.80;;;5.60;99.90;;;;;;7391725;19;20135;-74
2023/01/31 04:21:04;;;;;;;5.63;2.27;;;5.90;99.90;;;;;;7389767;19;20178;-73
2023/01/31 04:23:30;;;;;;;7.67;2.30;;;5.60;99.90;;;;;;7384830;19;20491;-74
2023/01/31 04:25:56;;;;;;;4.57;2.63;;;5.60;99.90;;;;;;7389061;19;20146;-74
2023/01/31 04:28:22;;;;;;;4.97;2.57;;;5.40;99.90;;;;;;7391730;19;20134;-74
2023/01/31 04:30:55;;;;;;;5.10;2.30;;;5.60;99.90;;;;;;7387849;19;20141;-74
2023/01/31 04:33:22;;;;;;;8.10;2.97;;;5.50;99.90;;;;;;7391154;19;20151;-74
2023/01/31 04:35:50;;;;;;;7.73;2.60;;;5.60;99.90;;;;;;7392055;19;20141;-73
2023/01/31 04:38:15;;;;;;;7.10;2.40;;;5.50;99.90;;;;;;7389200;19;20483;-75
2023/01/31 04:40:41;;;;;;;6.17;2.23;;;5.60;99.90;;;;;;7392998;19;20135;-73
2023/01/31 04:43:07;;;;;;;4.67;2.07;;;5.60;99.90;;;;;;7388060;19;20139;-74
2023/01/31 04:45:33;;;;;;;8.20;2.47;;;5.60;99.90;;;;;;7390644;19;20134;-74
2023/01/31 04:47:58;;;;;;;7.17;2.63;;;5.70;99.90;;;;;;7389849;19;20147;-75
2023/01/31 04:50:24;;;;;;;6.17;2.73;;;5.70;99.90;;;;;;7388968;19;20202;-75
2023/01/31 04:52:51;;;;;;;6.07;2.87;;;5.70;99.90;;;;;;7388940;19;20140;-73
2023/01/31 04:55:17;;;;;;;5.97;2.40;;;5.70;99.90;;;;;;7388417;19;20468;-74
2023/01/31 04:57:42;;;;;;;7.73;2.60;;;5.70;99.90;;;;;;7392191;19;20171;-74
2023/01/31 05:00:09;;;;;;;8.97;2.93;;;5.80;99.90;;;;;;7388557;19;20146;-74
2023/01/31 05:02:35;;;;;;;6.33;2.77;;;5.60;99.90;;;;;;7391337;19;20135;-74
2023/01/31 05:05:02;;;;;;;9.77;2.87;;;5.30;99.90;;;;;;7391283;19;20484;-74
2023/01/31 05:07:28;;;;;;;5.77;2.30;;;5.20;99.90;;;;;;7396929;19;20163;-73
2023/01/31 05:09:53;;;;;;;6.17;2.20;;;5.30;99.90;;;;;;7395368;19;20172;-73
2023/01/31 05:12:19;;;;;;;10.27;2.80;;;5.30;99.90;;;;;;7397816;19;20151;-74
2023/01/31 05:14:45;;;;;;;11.83;3.90;;;5.40;99.90;;;;;;7396809;19;20150;-74
2023/01/31 05:17:11;;;;;;;8.40;3.10;;;5.60;99.90;;;;;;7396897;19;20182;-74
2023/01/31 05:19:37;;;;;;;5.30;1.93;;;5.60;99.90;;;;;;7394895;19;20170;-74
2023/01/31 05:22:02;;;;;;;7.50;2.77;;;5.50;99.90;;;;;;7395287;19;20620;-74
2023/01/31 05:24:31;;;;;;;8.97;3.13;;;5.70;99.90;;;;;;7394820;19;20146;-74
2023/01/31 05:27:00;;;;;;;12.10;3.53;;;5.60;99.90;;;;;;7396107;19;20146;-74
2023/01/31 05:29:29;;;;;;;10.17;2.80;;;5.60;99.90;;;;;;7397117;19;20138;-74
2023/01/31 05:31:57;;;;;;;8.27;2.77;;;5.60;99.90;;;;;;7395197;19;20205;-74
2023/01/31 05:34:24;;;;;;;7.30;2.67;;;5.60;99.90;;;;;;7395140;19;20151;-74
2023/01/31 05:36:53;;;;;;;5.20;2.73;;;5.60;99.90;;;;;;7392778;19;20150;-74
2023/01/31 05:39:20;;;;;;;9.17;2.90;;;5.60;99.90;;;;;;7395086;19;20147;-77
2023/01/31 05:41:46;;;;;;;11.53;3.60;;;5.60;99.90;;;;;;7394735;19;20135;-74
2023/01/31 05:44:15;;;;;;;11.10;2.67;;;5.60;99.90;;;;;;7391881;19;20491;-74
2023/01/31 05:46:41;;;;;;;9.27;2.70;;;5.50;99.90;;;;;;7395406;19;20143;-74
2023/01/31 05:49:07;;;;;;;6.03;2.50;;;5.40;99.90;;;;;;7395968;19;20599;-74
2023/01/31 05:51:33;;;;;;;9.63;3.30;;;5.50;99.90;;;;;;7395737;19;20150;-74
2023/01/31 05:53:59;;;;;;;6.07;2.67;;;5.50;99.90;;;;;;7394298;19;20164;-74
2023/01/31 05:56:25;;;;;;;5.93;2.97;;;5.60;99.90;;;;;;7395278;19;20158;-74
2023/01/31 05:58:51;;;;;;;5.77;3.00;;;5.70;99.90;;;;;;7396516;19;20135;-75
2023/01/31 06:01:18;;;;;;;4.47;2.70;;;5.60;99.90;;;;;;7393172;19;20653;-74
2023/01/31 06:03:44;;;;;;;8.23;3.40;;;5.60;99.90;;;;;;7395610;19;20150;-74
2023/01/31 06:06:09;;;;;;;6.17;2.10;;;5.50;99.90;;;;;;7395804;19;20135;-74
2023/01/31 06:08:35;;;;;;;6.23;3.03;;;5.50;99.90;;;;;;7396307;19;20490;-76
2023/01/31 06:11:03;;;;;;;6.00;2.70;;;5.40;99.90;;;;;;7396765;19;20592;-74
2023/01/31 06:13:30;;;;;;;6.47;2.87;;;5.40;99.90;;;;;;7395240;19;20153;-75
2023/01/31 06:15:55;;;;;;;7.10;2.87;;;5.50;99.90;;;;;;7390174;19;20241;-75
2023/01/31 06:18:22;;;;;;;4.40;2.70;;;5.30;99.90;;;;;;7393415;19;20226;-75
2023/01/31 06:20:48;;;;;;;4.50;2.53;;;5.40;99.90;;;;;;7393677;19;20163;-73
2023/01/31 06:23:15;;;;;;;5.27;2.70;;;5.40;99.90;;;;;;7391121;19;20154;-74
2023/01/31 06:25:41;;;;;;;5.73;2.63;;;5.40;99.90;;;;;;7391569;19;20138;-75
2023/01/31 06:28:06;;;;;;;7.37;2.60;;;5.10;99.90;;;;;;7394555;19;20139;-74
2023/01/31 06:30:33;;;;;;;5.20;2.83;;;5.20;99.90;;;;;;7390478;19;20238;-74
2023/01/31 06:33:00;;;;;;;7.37;3.00;;;5.30;99.90;;;;;;7386621;19;20130;-74
2023/01/31 06:35:25;;;;;;;5.67;2.60;;;5.30;99.90;;;;;;7393322;19;20148;-73
2023/01/31 06:37:51;;;;;;;8.03;3.07;;;5.10;99.90;;;;;;7392742;19;20476;-74
2023/01/31 06:40:17;;;;;;;9.77;3.07;;;5.10;99.90;;;;;;7389623;19;20135;-73
2023/01/31 06:42:43;;;;;;;7.07;3.37;;;5.20;99.90;;;;;;7392007;19;20131;-74
2023/01/31 06:45:09;;;;;;;7.40;2.73;;;5.10;99.90;;;;;;7392997;19;20134;-75
2023/01/31 06:47:35;;;;;;;6.80;3.30;;;4.90;99.90;;;;;;7393008;19;20421;-73
2023/01/31 06:50:00;;;;;;;7.30;2.90;;;4.70;99.90;;;;;;7389521;19;20139;-74
2023/01/31 06:52:26;;;;;;;4.87;2.50;;;4.60;99.90;;;;;;7388401;19;20224;-73
2023/01/31 06:54:52;;;;;;;11.80;3.40;;;4.70;99.90;;;;;;7385752;19;20599;-73
2023/01/31 06:57:17;;;;;;;7.60;2.80;;;4.70;99.90;;;;;;7387187;19;20130;-74
2023/01/31 06:59:43;;;;;;;4.97;2.80;;;4.90;99.90;;;;;;7387015;19;20159;-74
2023/01/31 07:02:11;;;;;;;6.90;3.03;;;4.90;99.90;;;;;;7389862;19;20846;-74
2023/01/31 07:04:37;;;;;;;9.47;3.20;;;5.00;99.90;;;;;;7390316;19;20146;-74
2023/01/31 07:07:03;;;;;;;7.10;3.30;;;5.10;99.90;;;;;;7390017;19;20151;-73
2023/01/31 07:09:29;;;;;;;6.37;3.13;;;5.10;99.90;;;;;;7390999;19;20503;-72
2023/01/31 07:11:54;;;;;;;7.83;3.50;;;5.10;99.90;;;;;;7392525;19;20214;-74
2023/01/31 07:14:20;;;;;;;14.50;3.17;;;5.10;99.90;;;;;;7390659;19;20146;-74
2023/01/31 07:16:46;;;;;;;6.17;2.83;;;5.10;99.90;;;;;;7388927;19;20622;-74
2023/01/31 07:19:12;;;;;;;8.03;3.57;;;5.10;99.90;;;;;;7389629;19;20504;-74
2023/01/31 07:21:37;;;;;;;5.23;2.87;;;5.00;99.90;;;;;;7383921;19;20174;-74
2023/01/31 07:24:03;;;;;;;6.03;3.07;;;4.80;99.90;;;;;;7385909;19;21305;-72
2023/01/31 07:26:33;;;;;;;9.07;3.13;;;5.00;99.90;;;;;;7387372;19;20153;-73
2023/01/31 07:28:59;;;;;;;7.60;3.00;;;5.00;99.90;;;;;;7389035;19;20147;-75
2023/01/31 07:31:25;;;;;;;7.63;3.17;;;5.10;99.90;;;;;;7388105;19;20607;-75
2023/01/31 07:33:51;;;;;;;6.67;3.33;;;5.00;99.90;;;;;;7387947;19;20146;-73
2023/01/31 07:36:21;;;;;;;4.63;2.77;;;4.80;99.90;;;;;;7390404;19;20151;-73
2023/01/31 07:38:47;;;;;;;7.60;3.17;;;4.70;99.90;;;;;;7389956;19;20222;-75
2023/01/31 07:41:13;;;;;;;5.47;3.00;;;4.50;99.90;;;;;;7389209;19;20176;-75
2023/01/31 07:43:39;;;;;;;9.30;3.63;;;4.60;99.90;;;;;;7389954;19;20231;-73
2023/01/31 07:46:09;;;;;;;8.30;3.00;;;4.60;99.90;;;;;;7391653;19;20611;-73
2023/01/31 07:48:35;;;;;;;9.10;3.50;;;4.80;99.90;;;;;;7388527;19;20139;-74
2023/01/31 07:51:01;;;;;;;6.13;3.03;;;4.90;99.90;;;;;;7391421;19;20154;-73
2023/01/31 07:53:29;;;;;;;6.57;3.00;;;5.10;99.90;;;;;;7388975;19;20167;-74
2023/01/31 07:56:11;;;;;;;8.70;3.20;;;5.10;99.90;;;;;;7391785;19;20167;-73
2023/01/31 07:58:38;;;;;;;7.23;3.43;;;5.10;99.90;;;;;;7389919;19;20147;-75
2023/01/31 08:03:49;;;;;;;6.30;3.40;;;5.20;99.90;;;;;;7387705;19;20167;-74
2023/01/31 08:06:15;;;;;;;6.27;3.13;;;5.20;99.90;;;;;;7387959;19;20131;-74
2023/01/31 08:08:42;;;;;;;6.90;3.30;;;5.20;99.90;;;;;;7388660;19;20142;-74
2023/01/31 08:11:08;;;;;;;8.30;3.37;;;5.20;99.90;;;;;;7392049;19;20142;-75
2023/01/31 08:13:34;;;;;;;8.27;3.53;;;5.10;99.90;;;;;;7390495;19;20631;-74
2023/01/31 08:16:02;;;;;;;8.30;4.03;;;5.20;99.90;;;;;;7389455;19;20516;-73
2023/01/31 08:18:27;;;;;;;7.27;3.07;;;5.20;99.90;;;;;;7388848;19;20149;-73
2023/01/31 08:20:54;;;;;;;10.70;3.50;;;5.30;99.90;;;;;;7389085;19;20142;-73
2023/01/31 08:23:22;;;;;;;8.93;3.90;;;5.20;99.90;;;;;;7387699;19;20630;-73
2023/01/31 08:25:47;;;;;;;8.13;3.50;;;5.30;99.90;;;;;;7388056;19;20678;-74
2023/01/31 08:28:14;;;;;;;8.43;2.87;;;5.50;99.90;;;;;;7390094;19;20131;-75
2023/01/31 08:30:41;;;;;;;10.20;3.13;;;5.70;99.90;;;;;;7390318;19;20135;-74
2023/01/31 08:33:09;;;;;;;7.90;3.10;;;5.80;99.90;;;;;;7390357;19;20134;-73
2023/01/31 08:35:35;;;;;;;9.67;3.10;;;5.60;99.90;;;;;;7387543;19;20146;-75
2023/01/31 08:38:01;;;;;;;8.33;3.00;;;5.60;99.90;;;;;;7389856;19;20160;-74
2023/01/31 08:40:27;;;;;;;8.53;2.73;;;5.60;99.90;;;;;;7394233;19;20134;-75
2023/01/31 08:42:57;;;;;;;7.07;3.20;;;5.70;99.90;;;;;;7395051;19;20115;-74
2023/01/31 08:45:23;;;;;;;5.80;2.63;;;5.70;99.90;;;;;;7395899;19;20595;-74
2023/01/31 08:47:57;;;;;;;4.47;2.30;;;5.70;99.90;;;;;;7395672;19;20504;-73
2023/01/31 08:50:26;;;;;;;7.93;3.03;;;5.80;99.90;;;;;;7394800;19;20146;-76
2023/01/31 08:52:56;;;;;;;8.57;3.23;;;5.80;99.90;;;;;;7394863;19;20126;-74
2023/01/31 08:55:23;;;;;;;7.53;3.20;;;5.90;99.90;;;;;;7394456;19;20479;-74
2023/01/31 08:57:50;;;;;;;10.00;3.30;;;6.00;99.90;;;;;;7394959;19;20692;-76
2023/01/31 09:00:17;;;;;;;6.37;3.50;;;6.10;99.90;;;;;;7395913;19;20171;-73
2023/01/31 09:02:45;;;;;;;6.87;3.33;;;6.00;99.90;;;;;;7404816;19;20147;-75
2023/01/31 09:05:11;;;;;;;10.57;3.87;;;6.00;99.90;;;;;;7396057;19;20154;-74
2023/01/31 09:07:40;;;;;;;7.07;2.93;;;5.90;99.90;;;;;;7399790;19;20163;-75
2023/01/31 09:10:06;;;;;;;6.30;2.90;;;6.00;99.90;;;;;;7397351;19;20163;-75
2023/01/31 09:12:34;;;;;;;8.43;3.03;;;6.10;99.90;;;;;;7394555;19;20203;-75
2023/01/31 09:15:00;;;;;;;7.87;2.90;;;6.00;99.90;;;;;;7397323;19;20148;-74
2023/01/31 09:17:25;;;;;;;6.77;2.77;;;6.10;99.90;;;;;;7394578;19;20595;-74
2023/01/31 09:19:51;;;;;;;7.83;2.53;;;6.10;99.90;;;;;;7393729;19;20584;-74
2023/01/31 09:22:17;;;;;;;7.10;2.90;;;6.30;99.90;;;;;;7392180;19;20178;-75
2023/01/31 09:24:44;;;;;;;6.40;2.60;;;6.50;99.90;;;;;;7391535;19;20149;-74
2023/01/31 09:27:10;;;;;;;6.60;2.87;;;6.60;99.90;;;;;;7393771;19;20161;-73
2023/01/31 09:29:36;;;;;;;5.53;3.10;;;6.50;99.90;;;;;;7395770;19;20674;-74
2023/01/31 09:32:02;;;;;;;10.87;2.90;;;6.60;99.90;;;;;;7393104;19;20245;-73
2023/01/31 09:34:27;;;;;;;7.77;2.53;;;6.70;99.90;;;;;;7399945;19;20143;-73
2023/01/31 09:36:55;;;;;;;6.00;2.97;;;6.70;99.90;;;;;;7394929;19;20218;-74
2023/01/31 09:39:21;;;;;;;10.87;2.80;;;6.70;99.90;;;;;;7393989;19;20161;-73
2023/01/31 09:41:50;;;;;;;6.77;2.73;;;6.90;99.90;;;;;;7393957;19;20583;-73
2023/01/31 09:44:24;;;;;;;6.90;2.60;;;6.70;99.90;;;;;;7392368;19;20138;-73
2023/01/31 09:46:55;;;;;;;10.23;3.03;;;6.80;99.90;;;;;;7398587;19;20143;-74
2023/01/31 09:49:36;;;;;;;7.40;3.57;;;6.80;99.90;;;;;;7393024;19;20213;-74
2023/01/31 09:52:03;;;;;;;6.27;2.40;;;6.90;99.90;;;;;;7397172;19;20143;-75
2023/01/31 09:54:38;;;;;;;10.77;2.83;;;6.80;99.90;;;;;;7394308;19;20147;-74
2023/01/31 09:57:33;;;;;;;12.27;3.23;;;6.70;99.90;;;;;;7392672;19;20523;-74
2023/01/31 10:00:11;;;;;;;7.80;3.43;;;6.60;99.90;;;;;;7392316;19;20150;-73
2023/01/31 10:02:49;;;;;;;6.63;2.70;;;6.50;99.90;;;;;;7394992;19;20872;-74
2023/01/31 10:05:39;;;;;;;8.93;3.27;;;6.60;99.90;;;;;;7393294;19;20151;-74
2023/01/31 10:08:38;;;;;;;5.67;2.33;;;6.80;99.90;;;;;;7393389;19;20142;-74
2023/01/31 10:11:12;;;;;;;3.83;2.50;;;7.00;99.90;;;;;;7392291;19;20146;-73
2023/01/31 10:13:50;;;;;;;6.53;2.77;;;6.80;99.90;;;;;;7393129;19;20159;-74
2023/01/31 10:16:29;;;;;;;6.90;2.50;;;6.80;99.90;;;;;;7400884;19;20162;-74
2023/01/31 10:19:27;;;;;;;8.43;2.30;;;6.80;99.90;;;;;;7394387;19;20166;-72
2023/01/31 10:22:03;;;;;;;8.03;2.60;;;6.80;99.90;;;;;;7389900;19;20271;-74
2023/01/31 10:24:36;;;;;;;7.27;2.83;;;6.90;99.90;;;;;;7392469;19;20145;-73
2023/01/31 10:27:15;;;;;;;7.57;2.63;;;6.90;99.90;;;;;;7394789;19;20617;-73
2023/01/31 10:29:46;;;;;;;7.13;2.77;;;6.80;99.90;;;;;;7393973;19;20134;-73
2023/01/31 10:32:22;;;;;;;7.00;2.17;;;6.70;99.90;;;;;;7394868;19;20127;-74
2023/01/31 10:34:58;;;;;;;11.53;2.83;;;6.80;99.90;;;;;;7392430;19;20138;-72
2023/01/31 10:37:38;;;;;;;5.07;2.13;;;6.90;99.90;;;;;;7393503;19;20819;-74
2023/01/31 10:40:11;;;;;;;8.43;2.77;;;6.90;99.90;;;;;;7396773;19;20131;-74
2023/01/31 10:42:39;;;;;;;7.77;3.30;;;7.00;99.90;;;;;;7392678;19;20152;-74
2023/01/31 10:45:07;;;;;;;14.23;4.23;;;7.10;99.90;;;;;;7392826;19;20148;-74
2023/01/31 10:47:46;;;;;;;12.47;3.60;;;7.20;99.90;;;;;;7395982;19;20131;-73
2023/01/31 10:50:32;;;;;;;9.27;2.40;;;7.30;99.90;;;;;;7392058;19;20134;-74
2023/01/31 10:53:04;;;;;;;10.03;2.93;;;7.30;99.90;;;;;;7393400;19;20149;-73
2023/01/31 10:55:38;;;;;;;6.30;2.57;;;7.10;99.90;;;;;;7394405;19;20523;-75
2023/01/31 10:58:12;;;;;;;5.37;1.93;;;6.90;99.90;;;;;;7393176;19;20126;-74
2023/01/31 11:00:38;;;;;;;6.97;2.00;;;6.90;99.90;;;;;;7392844;19;20513;-74
2023/01/31 11:03:03;;;;;;;6.30;2.23;;;6.90;99.90;;;;;;7389317;19;20139;-74
2023/01/31 11:05:29;;;;;;;8.53;2.20;;;6.90;99.90;;;;;;7392140;19;20655;-74
2023/01/31 11:08:02;;;;;;;4.00;2.10;;;6.80;99.90;;;;;;7389963;19;20206;-73
2023/01/31 11:10:29;;;;;;;8.73;2.00;;;6.80;99.90;;;;;;7394312;19;20166;-74
2023/01/31 11:13:00;;;;;;;7.60;2.70;;;6.80;99.90;;;;;;7393004;19;20148;-73
2023/01/31 11:15:33;;;;;;;7.27;2.30;;;7.00;99.90;;;;;;7389800;19;20142;-73
2023/01/31 11:18:00;;;;;;;7.57;2.07;;;7.30;99.90;;;;;;7390372;19;20151;-74
2023/01/31 11:20:32;;;;;;;9.50;2.40;;;7.40;99.90;;;;;;7389831;19;20591;-74
2023/01/31 11:23:00;;;;;;;8.77;2.00;;;7.60;99.90;;;;;;7393349;19;20138;-72
2023/01/31 11:25:29;;;;;;;9.53;2.93;;;7.50;99.90;;;;;;7390343;19;20186;-74
2023/01/31 11:28:19;;;;;;;8.13;2.60;;;7.30;99.90;;;;;;7388479;19;20135;-73
2023/01/31 11:30:49;;;;;;;7.23;1.63;;;7.20;99.90;;;;;;7391495;19;20134;-72
2023/01/31 11:33:43;;;;;;;11.33;2.83;;;7.20;99.90;;;;;;7389592;19;20504;-73
2023/01/31 11:36:15;;;;;;;5.23;2.47;;;7.40;99.90;;;;;;7389287;19;20138;-75
2023/01/31 11:38:41;;;;;;;5.97;2.33;;;7.50;99.90;;;;;;7388766;19;20147;-72
2023/01/31 11:41:40;;;;;;;9.97;2.97;;;7.40;99.90;;;;;;7388587;19;20138;-73
2023/01/31 11:44:16;;;;;;;7.20;2.90;;;7.40;99.90;;;;;;7385560;19;20139;-73
2023/01/31 11:46:44;;;;;;;8.37;2.60;;;7.40;99.90;;;;;;7389601;19;20139;-74
2023/01/31 11:49:21;;;;;;;9.67;2.37;;;7.30;99.90;;;;;;7391001;19;20265;-74
2023/01/31 11:51:48;;;;;;;8.13;2.40;;;7.40;99.90;;;;;;7388019;19;20130;-73
2023/01/31 11:54:19;;;;;;;10.13;2.00;;;7.60;99.90;;;;;;7389799;19;20134;-73
2023/01/31 11:56:46;;;;;;;4.20;1.70;;;7.50;99.90;;;;;;7392542;19;20495;-74
2023/01/31 11:59:18;;;;;;;4.17;2.03;;;7.40;99.90;;;;;;7390091;19;20505;-73
2023/01/31 12:01:53;;;;;;;4.70;2.17;;;7.50;99.90;;;;;;7386695;19;20158;-74
2023/01/31 12:04:24;;;;;;;6.40;2.43;;;7.60;99.90;;;;;;7388535;19;20141;-73
2023/01/31 12:07:05;;;;;;;6.63;1.73;;;7.60;99.90;;;;;;7389628;19;20456;-74
2023/01/31 12:09:42;;;;;;;4.57;1.80;;;7.80;99.90;;;;;;7387088;19;20206;-74
2023/01/31 12:12:42;;;;;;;9.30;2.13;;;7.50;99.90;;;;;;7389748;19;20126;-73
2023/01/31 12:15:16;;;;;;;5.90;1.70;;;7.30;99.90;;;;;;7391956;19;20127;-74
2023/01/31 12:17:48;;;;;;;7.17;2.70;;;7.50;99.90;;;;;;7393695;19;20130;-74
2023/01/31 12:20:22;;;;;;;4.30;2.13;;;7.50;99.90;;;;;;7403554;19;20127;-73
2023/01/31 12:23:05;;;;;;;7.57;1.43;;;7.70;99.90;;;;;;7397279;19;20137;-75
2023/01/31 12:26:12;;;;;;;10.33;2.10;;;7.90;99.90;;;;;;7394657;19;20194;-74
2023/01/31 12:29:16;;;;;;;8.13;1.90;;;7.90;99.90;;;;;;7398687;19;20139;-73
2023/01/31 12:31:41;;;;;;;5.87;2.67;;;7.80;99.90;;;;;;7394712;19;20556;-73
2023/01/31 12:34:20;;;;;;;5.63;2.03;;;7.80;99.90;;;;;;7405016;19;20143;-73
2023/01/31 12:37:19;;;;;;;6.63;1.93;;;7.90;99.90;;;;;;7394842;19;20142;-73
2023/01/31 12:40:02;;;;;;;3.87;1.67;;;7.70;99.90;;;;;;7398417;19;20195;-76
2023/01/31 12:43:18;;;;;;;6.83;1.90;;;7.70;99.90;;;;;;7394352;19;20608;-75
2023/01/31 12:46:18;;;;;;;4.13;1.30;;;7.60;99.90;;;;;;7391744;19;20146;-73
2023/01/31 12:48:49;;;;;;;6.73;1.57;;;7.80;99.90;;;;;;7396071;19;20138;-77
2023/01/31 12:51:19;;;;;;;2.97;1.33;;;7.60;99.90;;;;;;7394970;19;20479;-73
2023/01/31 12:54:22;;;;;;;4.57;1.63;;;7.80;99.90;;;;;;7396026;19;20135;-73
2023/01/31 12:56:54;;;;;;;7.23;2.00;;;7.90;99.90;;;;;;7394852;19;20143;-74
2023/01/31 12:59:45;;;;;;;6.27;1.07;;;7.90;99.90;;;;;;7394881;19;20141;-74
2023/01/31 13:02:30;;;;;;;5.90;1.43;;;7.90;99.90;;;;;;7397280;19;20152;-73
2023/01/31 13:05:09;;;;;;;6.07;1.83;;;7.90;99.90;;;;;;7390852;19;20130;-74
2023/01/31 13:07:44;;;;;;;6.57;1.93;;;7.70;99.90;;;;;;7395736;19;20141;-73
2023/01/31 13:10:32;;;;;;;8.70;1.70;;;7.60;99.90;;;;;;7394695;19;20157;-73
2023/01/31 13:12:59;;;;;;;4.53;1.30;;;7.30;99.90;;;;;;7395931;19;20651;-73
2023/01/31 13:15:31;;;;;;;9.00;1.43;;;7.20;99.90;;;;;;7393428;19;20138;-73
2023/01/31 13:18:02;;;;;;;4.47;1.60;;;7.40;99.90;;;;;;7393023;19;20206;-74
2023/01/31 13:20:46;;;;;;;5.10;1.33;;;7.50;99.90;;;;;;7395007;19;20145;-74